EST,Max TemperatureF,Mean TemperatureF,Min TemperatureF,Max Dew PointF,MeanDew PointF,Min DewpointF,Max Humidity, Mean Humidity, Min Humidity, Max Sea Level PressureIn, Mean Sea Level PressureIn, Min Sea Level PressureIn, Max VisibilityMiles, Mean VisibilityMiles, Min VisibilityMiles, Max Wind SpeedMPH, Mean Wind SpeedMPH, Max Gust SpeedMPH,PrecipitationIn, CloudCover, Events, WindDirDegrees
2013-1-1,46,44,41,46,38,27,100,81,46,30.10,30.02,29.93,10,8,1,12,4,,0.13,6,Rain,228
2013-1-2,44,40,35,45,39,34,100,94,70,30.20,30.08,29.95,10,9,2,8,2,,0.15,5,Rain,14
2013-1-3,41,34,26,37,35,27,100,95,76,30.27,30.21,30.16,10,8,1,6,1,,0.00,6,,54
2013-1-4,46,36,26,28,23,19,100,61,34,30.32,30.27,30.20,10,10,7,10,3,17,0.00,1,,291
2013-1-5,50,39,28,32,24,21,81,58,32,30.39,30.31,30.25,10,10,10,12,2,,0.00,1,Rain,274
2013-1-6,51,43,35,37,34,30,100,74,50,30.24,30.16,30.06,10,10,10,6,1,,0.00,7,Rain,228
2013-1-7,50,39,28,32,30,28,100,78,43,30.45,30.36,30.20,10,10,10,9,1,,0.00,1,,2
2013-1-8,53,38,24,37,32,25,100,83,50,30.50,30.42,30.38,10,10,7,5,0,,0.00,4,,134
2013-1-9,64,47,30,52,43,30,100,84,59,30.45,30.41,30.36,10,10,5,14,2,20,0.00,2,,240
2013-1-10,62,52,41,48,39,32,100,68,47,30.56,30.49,30.43,10,10,10,9,2,,0.00,0,,58
2013-1-11,46,42,39,46,40,32,100,91,57,30.45,30.30,30.17,10,4,0,7,3,,0.06,8,Fog-Rain,82
2013-1-12,68,57,46,61,56,46,100,95,73,30.18,30.14,30.13,10,6,0,6,2,,0.00,5,Fog,233
2013-1-13,71,62,53,63,57,54,100,85,60,30.15,30.10,30.07,10,6,0,15,4,25,0.00,4,Fog,198
2013-1-14,64,56,48,63,59,48,100,94,77,30.20,30.13,30.09,10,7,1,16,6,23,0.54,7,Rain,206
2013-1-15,46,44,41,46,42,41,100,100,100,30.27,30.20,30.10,10,4,1,14,8,23,0.08,8,Rain,53
2013-1-16,48,42,37,48,43,37,100,100,100,30.09,30.03,29.97,10,6,2,8,2,,0.18,8,Rain,341
2013-1-17,48,40,32,48,44,32,100,100,100,30.09,30.02,29.94,10,5,1,22,4,33,0.81,8,Rain-Snow,32
2013-1-18,41,34,26,32,30,23,100,88,49,30.54,30.42,30.17,10,10,4,7,2,,0.01,1,Snow,313
2013-1-19,51,37,23,32,28,23,100,76,38,30.50,30.35,30.14,10,10,10,10,2,,0.00,0,,221
2013-1-20,59,46,32,32,30,27,93,54,34,30.14,30.07,30.00,10,10,10,14,6,25,0.00,0,,253
2013-1-21,57,42,26,34,26,14,100,61,29,30.10,30.00,29.87,10,10,10,13,2,22,0.00,0,,251
2013-1-22,37,28,19,14,4,-6,74,34,18,30.29,30.17,29.97,10,10,10,12,6,23,0.00,0,,318
2013-1-23,37,26,15,21,12,3,86,55,30,30.37,30.25,30.04,10,10,10,10,2,18,0.00,2,,267
2013-1-24,33,27,21,25,10,0,70,45,27,30.52,30.28,29.96,10,10,10,18,6,26,0.00,2,,357
2013-1-25,26,22,17,27,17,3,100,78,43,30.52,30.33,30.11,10,9,2,9,3,,0.06,5,Snow,211
2013-1-26,35,28,21,32,28,21,100,97,75,30.41,30.22,30.09,10,6,0,5,1,,0.00,2,Fog,313
2013-1-27,37,29,21,30,25,21,100,83,60,30.60,30.52,30.41,10,9,0,8,2,,0.00,2,Fog,131
2013-1-28,51,40,30,46,36,28,100,81,54,30.50,30.36,30.22,10,9,5,17,5,21,0.00,8,Rain,213
2013-1-29,71,58,44,55,50,45,100,76,46,30.23,30.15,30.07,10,9,2,12,7,16,0.00,2,,222
2013-1-30,69,64,60,63,60,55,94,83,73,30.07,29.78,29.39,10,10,2,25,13,40,0.27,7,Rain,193
2013-1-31,59,46,32,57,28,18,100,57,32,30.00,29.79,29.44,10,10,7,24,14,38,0.12,3,Rain,260